createdAt,value
2022-09-01T00:04:21.998Z,64.73
2022-09-01T00:06:51.344Z,64.72
2022-09-01T00:09:20.765Z,64.83
2022-09-01T00:11:57.902Z,64.78
2022-09-01T00:14:30.505Z,64.69
2022-09-01T00:17:02.399Z,64.32
2022-09-01T00:19:33.968Z,64.13
2022-09-01T00:22:05.259Z,64.12
2022-09-01T00:24:33.644Z,64.22
2022-09-01T00:27:04.797Z,64.38
2022-09-01T00:29:33.221Z,64.32
2022-09-01T00:32:03.812Z,64.34
2022-09-01T00:34:32.896Z,64.32
2022-09-01T00:37:02.112Z,64.07
2022-09-01T00:39:30.812Z,63.86
2022-09-01T00:41:59.692Z,63.80
2022-09-01T00:44:29.577Z,63.84
2022-09-01T00:47:00.745Z,63.97
2022-09-01T00:49:37.710Z,64.20
2022-09-01T00:52:12.846Z,64.04
2022-09-01T00:54:46.568Z,63.64
2022-09-01T00:57:15.542Z,63.77
2022-09-01T00:59:50.480Z,63.80
2022-09-01T01:02:19.686Z,63.91
2022-09-01T01:04:47.965Z,63.88
2022-09-01T01:07:17.266Z,63.90
2022-09-01T01:09:45.625Z,63.86
2022-09-01T01:12:18.634Z,63.94
2022-09-01T01:14:50.733Z,63.90
2022-09-01T01:17:19.646Z,64.01
2022-09-01T01:20:11.373Z,64.35
2022-09-01T01:23:19.652Z,64.35
2022-09-01T01:25:57.718Z,64.31
2022-09-01T01:28:32.024Z,64.32
2022-09-01T01:31:07.609Z,64.14
2022-09-01T01:33:48.520Z,64.15
2022-09-01T01:36:19.855Z,64.14
2022-09-01T01:38:49.460Z,63.93
2022-09-01T01:41:20.064Z,63.75
2022-09-01T01:43:48.911Z,63.78
2022-09-01T01:46:19.216Z,63.90
2022-09-01T01:48:49.161Z,63.79
2022-09-01T01:51:21.346Z,63.45
2022-09-01T01:53:52.807Z,63.15
2022-09-01T01:56:26.254Z,63.13
2022-09-01T01:58:57.720Z,63.34
2022-09-01T02:01:29.200Z,63.60
2022-09-01T02:04:00.338Z,63.73
2022-09-01T02:06:30.115Z,63.75
2022-09-01T02:09:03.685Z,63.38
2022-09-01T02:11:34.241Z,63.08
2022-09-01T02:14:03.137Z,63.11
2022-09-01T02:16:32.870Z,62.98
2022-09-01T02:19:07.299Z,63.10
2022-09-01T02:21:35.947Z,63.00
2022-09-01T02:24:08.545Z,63.02
2022-09-01T02:26:43.071Z,62.83
2022-09-01T02:29:25.540Z,62.91
2022-09-01T02:31:54.791Z,62.96
2022-09-01T02:34:24.795Z,62.89
2022-09-01T02:36:55.908Z,62.99
2022-09-01T02:39:33.729Z,62.98
2022-09-01T02:42:02.822Z,62.96
2022-09-01T02:44:32.188Z,63.06
2022-09-01T02:47:01.792Z,63.10
2022-09-01T02:49:30.243Z,63.10
2022-09-01T02:52:01.881Z,62.96
2022-09-01T02:54:33.198Z,62.99
2022-09-01T02:57:01.680Z,63.12
2022-09-01T02:59:30.656Z,63.10
2022-09-01T03:02:02.183Z,63.18
2022-09-01T03:04:33.969Z,63.24
2022-09-01T03:07:07.173Z,63.17
2022-09-01T03:09:36.921Z,63.25
2022-09-01T03:12:07.420Z,63.35
2022-09-01T03:14:36.090Z,63.43
2022-09-01T03:17:08.834Z,63.48
2022-09-01T03:19:45.587Z,63.49
2022-09-01T03:22:13.927Z,63.49
2022-09-01T03:24:42.353Z,63.56
2022-09-01T03:27:11.931Z,63.39
2022-09-01T03:29:40.722Z,63.32
2022-09-01T03:32:09.010Z,63.09
2022-09-01T03:34:37.094Z,63.24
2022-09-01T03:37:08.080Z,63.26
2022-09-01T03:39:37.194Z,63.30
2022-09-01T03:42:05.585Z,63.27
2022-09-01T03:44:41.936Z,63.12
2022-09-01T03:47:15.346Z,63.31
2022-09-01T03:49:43.729Z,63.24
2022-09-01T03:52:14.255Z,63.26
2022-09-01T03:54:43.925Z,63.28
2022-09-01T03:57:13.855Z,63.41
2022-09-01T03:59:44.182Z,63.43
2022-09-01T04:02:13.504Z,63.36
2022-09-01T04:04:43.266Z,63.38
2022-09-01T04:07:19.114Z,63.21
2022-09-01T04:09:51.339Z,63.00
2022-09-01T04:12:20.646Z,63.16
2022-09-01T04:14:53.627Z,63.24
2022-09-01T04:17:40.815Z,63.33
2022-09-01T04:20:10.980Z,63.20
2022-09-01T04:22:41.671Z,63.23
2022-09-01T04:25:12.010Z,63.31
2022-09-01T04:27:42.226Z,63.45
2022-09-01T04:30:13.146Z,63.45
2022-09-01T04:32:50.152Z,63.25
2022-09-01T04:35:19.097Z,63.53
2022-09-01T04:37:51.686Z,63.33
2022-09-01T04:40:24.083Z,63.43
2022-09-01T04:43:00.628Z,63.36
2022-09-01T04:45:31.961Z,63.30
2022-09-01T04:48:05.608Z,63.35
2022-09-01T04:50:35.046Z,63.42
2022-09-01T04:53:36.290Z,63.49
2022-09-01T04:56:07.725Z,63.72
2022-09-01T04:59:51.549Z,63.67
2022-09-01T05:02:19.592Z,63.58
2022-09-01T05:04:47.557Z,63.60
2022-09-01T05:07:16.983Z,63.60
2022-09-01T05:09:45.968Z,63.57
2022-09-01T05:12:35.842Z,63.81
2022-09-01T05:15:06.537Z,63.75
2022-09-01T05:17:34.637Z,63.47
2022-09-01T05:20:03.676Z,63.45
2022-09-01T05:22:32.279Z,63.33
2022-09-01T05:25:13.506Z,63.33
2022-09-01T05:27:52.685Z,63.38
2022-09-01T05:30:24.321Z,63.39
2022-09-01T05:32:53.035Z,63.43
2022-09-01T05:35:24.705Z,63.53
2022-09-01T05:38:00.484Z,63.31
2022-09-01T05:40:28.496Z,63.49
2022-09-01T05:42:58.007Z,63.46
2022-09-01T05:45:26.703Z,63.44
2022-09-01T05:47:55.114Z,63.85
2022-09-01T05:50:23.207Z,63.37
2022-09-01T05:52:51.434Z,63.29
2022-09-01T05:55:19.415Z,63.68
2022-09-01T05:57:48.115Z,63.67
2022-09-01T06:00:18.279Z,63.61
2022-09-01T06:02:49.120Z,63.59
2022-09-01T06:05:21.050Z,62.93
2022-09-01T06:07:49.370Z,63.21
2022-09-01T06:10:17.824Z,63.08
2022-09-01T06:12:47.810Z,63.35
2022-09-01T06:15:18.686Z,63.03
2022-09-01T06:17:50.163Z,62.66
2022-09-01T06:20:19.065Z,62.60
2022-09-01T06:22:47.748Z,62.14
2022-09-01T06:25:19.796Z,62.33
2022-09-01T06:27:48.658Z,62.26
2022-09-01T06:30:24.230Z,62.17
2022-09-01T06:33:02.231Z,62.06
2022-09-01T06:35:31.060Z,61.60
2022-09-01T06:38:01.959Z,61.86
2022-09-01T06:40:51.044Z,61.65
2022-09-01T06:43:20.579Z,62.04
2022-09-01T06:45:55.083Z,61.86
2022-09-01T06:48:27.674Z,62.03
2022-09-01T06:51:19.121Z,61.19
2022-09-01T06:53:56.643Z,60.77
2022-09-01T06:56:32.371Z,60.53
2022-09-01T06:59:06.164Z,60.02
2022-09-01T07:01:35.320Z,59.32
2022-09-01T07:04:04.033Z,59.39
2022-09-01T07:10:06.303Z,58.47
2022-09-01T07:18:30.885Z,58.38
2022-09-01T07:21:06.993Z,58.28
2022-09-01T07:24:07.939Z,57.79
2022-09-01T07:26:28.525Z,57.43
2022-09-01T07:31:49.656Z,55.53
2022-09-01T07:42:31.116Z,59.12
2022-09-01T07:42:56.130Z,58.26
2022-09-01T07:43:09.628Z,54.35
2022-09-01T07:46:36.294Z,54.29
2022-09-01T07:51:37.729Z,52.95
2022-09-01T07:54:07.487Z,52.28
2022-09-01T07:56:40.238Z,52.39
2022-09-01T07:59:14.953Z,51.70
2022-09-01T08:02:06.583Z,51.05
2022-09-01T08:04:35.147Z,50.07
2022-09-01T08:07:05.720Z,49.29
2022-09-01T08:09:38.646Z,47.91
2022-09-01T08:12:12.926Z,47.99
2022-09-01T08:14:46.750Z,47.80
2022-09-01T08:17:17.174Z,47.04
2022-09-01T08:20:08.747Z,47.34
2022-09-01T08:22:58.702Z,46.87
2022-09-01T08:25:35.381Z,46.38
2022-09-01T08:28:04.170Z,45.65
2022-09-01T08:30:35.620Z,44.71
2022-09-01T08:33:11.660Z,44.42
2022-09-01T08:35:46.536Z,43.55
2022-09-01T08:38:15.441Z,44.13
2022-09-01T08:40:56.356Z,44.42
2022-09-01T08:44:06.254Z,43.87
2022-09-01T08:46:39.107Z,44.94
2022-09-01T08:49:25.128Z,44.46
2022-09-01T08:52:25.515Z,43.66
2022-09-01T08:54:58.425Z,43.19
2022-09-01T08:57:32.443Z,42.56
2022-09-01T09:00:23.661Z,42.49
2022-09-01T09:03:02.688Z,43.22
2022-09-01T09:05:39.376Z,43.66
2022-09-01T09:08:29.651Z,44.17
2022-09-01T09:11:03.371Z,44.32
2022-09-01T09:13:59.058Z,43.69
2022-09-01T09:16:38.241Z,42.45
2022-09-01T09:19:15.044Z,42.28
2022-09-01T09:21:47.378Z,41.92
2022-09-01T09:24:39.580Z,41.44
2022-09-01T09:27:09.773Z,41.55
2022-09-01T09:29:38.971Z,41.91
2022-09-01T09:32:22.409Z,42.45
2022-09-01T09:34:51.871Z,40.19
2022-09-01T09:37:21.585Z,39.59
2022-09-01T09:40:12.416Z,39.87
2022-09-01T09:42:56.189Z,40.94
2022-09-01T09:45:42.213Z,40.14
2022-09-01T09:48:29.161Z,38.22
2022-09-01T09:51:17.319Z,39.16
2022-09-01T09:53:45.633Z,39.09
2022-09-01T09:56:24.319Z,40.56
2022-09-01T09:58:53.412Z,40.93
2022-09-01T10:01:24.925Z,41.61
2022-09-01T10:03:56.442Z,41.59
2022-09-01T10:06:32.413Z,41.26
2022-09-01T10:09:03.802Z,41.07
2022-09-01T10:11:41.562Z,39.53
2022-09-01T10:14:51.800Z,39.51
2022-09-01T10:21:46.531Z,37.42
2022-09-01T10:24:39.099Z,36.72
2022-09-01T10:27:25.024Z,35.28
2022-09-01T10:30:14.171Z,35.09
2022-09-01T10:32:54.279Z,34.28
2022-09-01T10:35:27.477Z,33.75
2022-09-01T10:37:58.222Z,33.03
2022-09-01T10:40:31.156Z,32.73
2022-09-01T10:43:19.843Z,31.87
2022-09-01T10:45:54.922Z,29.82
2022-09-01T10:48:36.527Z,30.24
2022-09-01T10:51:18.536Z,31.37
2022-09-01T10:53:51.934Z,31.93
2022-09-01T10:56:50.858Z,31.21
2022-09-01T10:59:43.562Z,31.57
2022-09-01T11:02:34.733Z,31.36
2022-09-01T11:05:00.855Z,31.19
2022-09-01T11:07:50.209Z,31.25
2022-09-01T11:10:34.469Z,30.21
2022-09-01T11:13:05.540Z,29.68
2022-09-01T11:15:39.429Z,28.71
2022-09-01T11:18:10.583Z,28.33
2022-09-01T11:20:40.117Z,28.65
2022-09-01T11:23:22.205Z,28.34
2022-09-01T11:28:47.398Z,27.79
2022-09-01T11:31:35.486Z,28.52
2022-09-01T11:34:23.684Z,28.27
2022-09-01T11:36:58.906Z,27.53
2022-09-01T11:39:58.583Z,26.07
2022-09-01T11:42:45.919Z,26.94
2022-09-01T11:45:21.668Z,27.61
2022-09-01T11:47:52.858Z,28.94
2022-09-01T11:50:23.126Z,28.64
2022-09-01T11:53:12.826Z,28.47
2022-09-01T11:55:46.762Z,27.85
2022-09-01T11:58:39.247Z,27.88
2022-09-01T12:01:31.533Z,27.55
2022-09-01T12:04:22.390Z,27.58
2022-09-01T12:06:56.787Z,28.29
2022-09-01T12:09:33.610Z,28.84
2022-09-01T12:12:01.784Z,28.60
2022-09-01T12:14:43.367Z,27.91
2022-09-01T12:17:13.119Z,28.77
2022-09-01T12:19:41.155Z,28.31
2022-09-01T12:22:18.933Z,28.69
2022-09-01T12:24:50.799Z,28.13
2022-09-01T12:27:20.482Z,28.45
2022-09-01T12:29:48.804Z,28.50
2022-09-01T12:32:17.448Z,28.45
2022-09-01T12:35:11.041Z,29.22
2022-09-01T12:37:39.662Z,29.62
2022-09-01T12:40:23.387Z,30.40
2022-09-01T12:42:53.266Z,30.45
2022-09-01T12:45:37.749Z,30.84
2022-09-01T12:48:06.030Z,31.25
2022-09-01T12:50:36.759Z,31.40
2022-09-01T12:53:15.311Z,28.99
2022-09-01T12:55:55.330Z,28.19
2022-09-01T12:58:26.126Z,29.25
2022-09-01T13:01:08.774Z,28.64
2022-09-01T13:04:05.528Z,27.89
2022-09-01T13:06:33.547Z,27.74
2022-09-01T13:09:01.595Z,27.49
2022-09-01T13:12:05.754Z,27.45
2022-09-01T13:14:19.149Z,27.22
2022-09-01T13:16:47.120Z,26.46
2022-09-01T13:19:21.870Z,24.85
2022-09-01T13:21:55.250Z,24.84
2022-09-01T13:24:28.527Z,24.54
2022-09-01T13:29:46.688Z,25.64
2022-09-01T13:32:19.169Z,25.25
2022-09-01T13:34:50.775Z,24.37
2022-09-01T13:37:21.191Z,24.07
2022-09-01T13:39:49.489Z,24.25
2022-09-01T13:42:17.503Z,23.33
2022-09-01T13:44:48.292Z,23.96
2022-09-01T13:47:33.486Z,23.86
2022-09-01T13:50:10.816Z,24.07
2022-09-01T13:52:41.505Z,23.26
2022-09-01T13:55:14.535Z,23.05
2022-09-01T13:57:42.774Z,23.47
2022-09-01T14:00:15.731Z,23.20
2022-09-01T14:02:50.225Z,22.59
2022-09-01T14:05:28.611Z,22.55
2022-09-01T14:07:57.357Z,22.46
2022-09-01T14:10:28.018Z,21.85
2022-09-01T14:12:56.267Z,20.65
2022-09-01T14:15:27.296Z,20.90
2022-09-01T14:17:57.026Z,20.18
2022-09-01T14:20:30.114Z,20.30
2022-09-01T14:22:59.418Z,19.33
2022-09-01T14:25:29.492Z,19.51
2022-09-01T14:27:57.421Z,19.66
2022-09-01T14:30:31.493Z,20.25
2022-09-01T14:33:00.834Z,20.50
2022-09-01T14:35:33.267Z,20.36
2022-09-01T14:38:01.886Z,20.28
2022-09-01T14:40:30.065Z,19.66
2022-09-01T14:42:58.133Z,18.96
2022-09-01T14:45:29.341Z,19.07
2022-09-01T14:47:59.081Z,18.87
2022-09-01T14:50:30.294Z,18.79
2022-09-01T14:52:59.481Z,18.37
2022-09-01T14:55:29.947Z,17.80
2022-09-01T14:57:58.620Z,17.65
2022-09-01T15:00:27.568Z,17.34
2022-09-01T15:02:55.764Z,17.24
2022-09-01T15:05:24.221Z,16.70
2022-09-01T15:07:52.770Z,16.32
2022-09-01T15:10:24.564Z,16.32
2022-09-01T15:12:56.348Z,16.38
2022-09-01T15:15:25.216Z,16.19
2022-09-01T15:17:53.354Z,15.35
2022-09-01T15:20:40.328Z,16.43
2022-09-01T15:23:08.636Z,16.93
2022-09-01T15:25:37.429Z,18.05
2022-09-01T15:28:06.262Z,18.92
2022-09-01T15:30:35.355Z,19.63
2022-09-01T15:33:06.720Z,20.05
2022-09-01T15:35:34.708Z,20.39
2022-09-01T15:38:02.840Z,19.62
2022-09-01T15:40:31.637Z,19.02
2022-09-01T15:43:00.323Z,17.88
2022-09-01T15:45:29.213Z,16.95
2022-09-01T15:47:57.197Z,16.07
2022-09-01T15:50:27.534Z,15.62
2022-09-01T15:53:01.443Z,14.90
2022-09-01T15:55:31.960Z,14.62
2022-09-01T15:58:00.666Z,14.02
2022-09-01T16:00:29.481Z,14.11
2022-09-01T16:03:01.670Z,13.69
2022-09-01T16:05:30.930Z,13.37
2022-09-01T16:08:01.304Z,12.65
2022-09-01T16:10:33.521Z,12.60
2022-09-01T16:13:04.518Z,12.42
2022-09-01T16:15:35.543Z,12.16
2022-09-01T16:18:10.189Z,12.01
2022-09-01T16:20:50.401Z,12.38
2022-09-01T16:23:20.847Z,13.08
2022-09-01T16:25:49.291Z,14.11
2022-09-01T16:28:29.741Z,14.29
2022-09-01T16:31:21.312Z,14.04
2022-09-01T16:33:51.720Z,13.65
2022-09-01T16:36:35.523Z,13.57
2022-09-01T16:39:12.790Z,13.30
2022-09-01T16:41:54.860Z,12.72
2022-09-01T16:44:48.037Z,12.53
2022-09-01T16:47:25.935Z,13.00
2022-09-01T16:50:15.350Z,14.78
2022-09-01T16:53:01.201Z,16.31
2022-09-01T16:56:09.467Z,18.11
2022-09-01T16:59:00.319Z,20.04
2022-09-01T17:01:37.536Z,21.52
2022-09-01T17:04:19.444Z,22.92
2022-09-01T17:06:57.158Z,24.19
2022-09-01T17:09:35.407Z,25.58
2022-09-01T17:12:27.609Z,26.83
2022-09-01T17:14:59.688Z,28.06
2022-09-01T17:17:35.065Z,29.10
2022-09-01T17:20:06.245Z,29.96
2022-09-01T17:22:37.585Z,31.10
2022-09-01T17:25:13.754Z,31.78
2022-09-01T17:28:07.932Z,32.41
2022-09-01T17:30:44.915Z,33.54
2022-09-01T17:33:41.785Z,34.96
2022-09-01T17:36:49.738Z,36.63
2022-09-01T17:39:26.839Z,37.67
2022-09-01T17:42:00.506Z,38.28
2022-09-01T17:44:45.691Z,39.11
2022-09-01T17:47:17.749Z,39.47
2022-09-01T17:50:11.001Z,40.21
2022-09-01T17:52:54.533Z,40.75
2022-09-01T17:55:31.354Z,41.24
2022-09-01T17:58:27.385Z,42.02
2022-09-01T18:01:01.736Z,42.75
2022-09-01T18:03:49.295Z,43.03
2022-09-01T18:06:39.331Z,43.46
2022-09-01T18:09:07.503Z,44.20
2022-09-01T18:11:38.607Z,44.89
2022-09-01T18:14:16.778Z,45.40
2022-09-01T18:16:57.904Z,45.57
2022-09-01T18:19:36.639Z,45.96
2022-09-01T18:22:12.004Z,46.43
2022-09-01T18:24:57.101Z,47.06
2022-09-01T18:27:27.811Z,47.47
2022-09-01T18:30:01.251Z,47.78
2022-09-01T18:32:30.496Z,48.16
2022-09-01T18:35:08.410Z,48.64
2022-09-01T18:37:53.389Z,48.86
2022-09-01T18:40:48.592Z,49.41
2022-09-01T18:43:38.841Z,49.34
2022-09-01T18:46:31.549Z,49.62
2022-09-01T18:49:05.186Z,49.91
2022-09-01T18:51:52.410Z,50.21
2022-09-01T18:54:34.571Z,50.51
2022-09-01T18:57:05.641Z,50.87
2022-09-01T18:59:59.967Z,51.18
2022-09-01T19:02:37.942Z,51.63
2022-09-01T19:05:18.702Z,51.70
2022-09-01T19:07:58.280Z,52.04
2022-09-01T19:10:33.416Z,52.23
2022-09-01T19:13:49.099Z,52.35
2022-09-01T19:16:28.967Z,52.73
2022-09-01T19:19:09.851Z,53.33
2022-09-01T19:21:37.945Z,53.63
2022-09-01T19:24:19.109Z,53.71
2022-09-01T19:26:58.191Z,53.98
2022-09-01T19:29:37.161Z,54.27
2022-09-01T19:32:09.556Z,54.65
2022-09-01T19:34:46.350Z,54.83
2022-09-01T19:37:15.137Z,55.11
2022-09-01T19:39:49.788Z,55.30
2022-09-01T19:42:48.667Z,55.21
2022-09-01T19:45:31.647Z,55.35
2022-09-01T19:48:29.485Z,55.52
2022-09-01T19:51:07.082Z,55.43
2022-09-01T19:53:41.684Z,55.81
2022-09-01T19:56:14.694Z,56.17
2022-09-01T19:58:42.556Z,56.24
2022-09-01T20:01:15.736Z,56.71
2022-09-01T20:03:49.369Z,57.03
2022-09-01T20:06:35.881Z,57.35
2022-09-01T20:09:15.667Z,57.19
2022-09-01T20:12:14.802Z,57.16
2022-09-01T20:14:52.604Z,56.74
2022-09-01T20:17:29.747Z,56.55
2022-09-01T20:20:12.884Z,56.47
2022-09-01T20:22:41.358Z,56.78
2022-09-01T20:25:21.156Z,56.86
2022-09-01T20:28:04.373Z,56.93
2022-09-01T20:30:41.317Z,57.07
2022-09-01T20:33:18.253Z,57.05
2022-09-01T20:35:53.042Z,57.18
2022-09-01T20:38:48.779Z,57.07
2022-09-01T20:41:25.344Z,56.90
2022-09-01T20:43:54.948Z,56.78
2022-09-01T20:46:24.447Z,56.97
2022-09-01T20:48:52.457Z,56.94
2022-09-01T20:51:27.620Z,57.23
2022-09-01T20:54:04.651Z,57.30
2022-09-01T20:57:00.264Z,57.58
2022-09-01T20:59:36.773Z,57.58
2022-09-01T21:02:07.790Z,57.82
2022-09-01T21:04:54.040Z,57.75
2022-09-01T21:07:31.471Z,57.70
2022-09-01T21:10:16.066Z,57.69
2022-09-01T21:12:53.186Z,57.63
2022-09-01T21:15:24.043Z,57.63
2022-09-01T21:18:21.374Z,57.66
2022-09-01T21:20:57.267Z,58.68
2022-09-01T21:23:26.253Z,58.53
2022-09-01T21:25:54.300Z,58.58
2022-09-01T21:28:26.680Z,57.90
2022-09-01T21:30:57.696Z,57.90
2022-09-01T21:33:28.464Z,57.79
2022-09-01T21:35:57.245Z,57.85
2022-09-01T21:38:26.052Z,57.91
2022-09-01T21:40:54.771Z,57.95
2022-09-01T21:43:26.105Z,57.88
2022-09-01T21:45:54.433Z,58.49
2022-09-01T21:48:22.753Z,58.88
2022-09-01T21:50:50.724Z,59.31
2022-09-01T21:53:19.087Z,59.58
2022-09-01T21:55:47.116Z,59.28
2022-09-01T21:58:15.167Z,59.24
2022-09-01T22:00:44.473Z,58.98
2022-09-01T22:03:12.745Z,58.50
2022-09-01T22:05:42.429Z,57.96
2022-09-01T22:08:13.030Z,57.91
2022-09-01T22:10:46.510Z,57.59
2022-09-01T22:13:17.237Z,57.36
2022-09-01T22:15:48.366Z,57.42
2022-09-01T22:18:17.395Z,57.48
2022-09-01T22:20:45.790Z,57.75
2022-09-01T22:23:14.423Z,58.02
2022-09-01T22:25:45.162Z,57.80
2022-09-01T22:28:13.895Z,57.93
2022-09-01T22:30:49.775Z,57.81
2022-09-01T22:33:20.287Z,57.91
2022-09-01T22:35:50.906Z,58.06
2022-09-01T22:38:21.234Z,58.27
2022-09-01T22:40:55.490Z,58.11
2022-09-01T22:43:25.035Z,57.66
2022-09-01T22:45:54.494Z,57.72
2022-09-01T22:48:25.189Z,57.41
2022-09-01T22:50:53.449Z,57.06
2022-09-01T22:53:22.793Z,56.92
2022-09-01T22:55:52.299Z,56.54
2022-09-01T22:58:20.642Z,56.17
2022-09-01T23:00:52.256Z,56.04
2022-09-01T23:03:20.899Z,55.90
2022-09-01T23:05:49.981Z,55.75
2022-09-01T23:08:17.889Z,55.74
2022-09-01T23:10:45.797Z,55.77
2022-09-01T23:13:13.715Z,55.54
2022-09-01T23:15:43.458Z,55.49
2022-09-01T23:18:11.309Z,55.52
2022-09-01T23:20:39.678Z,55.56
2022-09-01T23:23:07.774Z,55.56
2022-09-01T23:25:35.646Z,55.50
2022-09-01T23:28:03.712Z,55.63
2022-09-01T23:30:31.786Z,55.47
2022-09-01T23:32:59.594Z,55.55
2022-09-01T23:35:28.592Z,55.65
2022-09-01T23:37:57.888Z,55.68
2022-09-01T23:40:26.137Z,55.68
2022-09-01T23:42:54.009Z,55.73
2022-09-01T23:45:21.813Z,55.94
2022-09-01T23:47:49.988Z,56.24
2022-09-01T23:50:17.864Z,56.26
2022-09-01T23:52:46.635Z,56.22
2022-09-01T23:55:14.482Z,56.33
2022-09-01T23:57:42.350Z,56.37
